sensor_id;sensor_type;location;lat;lon;timestamp;P1;durP1;ratioP1;P2;durP2;ratioP2
26598;SDS011;14240;51.064;16.612;2023-12-29T00:00:40;33.95;;;14.05;;
26598;SDS011;14240;51.064;16.612;2023-12-29T00:03:06;40.90;;;15.40;;
26598;SDS011;14240;51.064;16.612;2023-12-29T00:05:31;47.45;;;14.57;;
26598;SDS011;14240;51.064;16.612;2023-12-29T00:07:57;62.30;;;21.88;;
26598;SDS011;14240;51.064;16.612;2023-12-29T00:10:23;48.55;;;15.15;;
26598;SDS011;14240;51.064;16.612;2023-12-29T00:12:49;38.42;;;13.13;;
26598;SDS011;14240;51.064;16.612;2023-12-29T00:15:17;28.75;;;11.68;;
26598;SDS011;14240;51.064;16.612;2023-12-29T00:17:46;26.60;;;11.25;;
26598;SDS011;14240;51.064;16.612;2023-12-29T00:20:12;21.25;;;10.90;;
26598;SDS011;14240;51.064;16.612;2023-12-29T00:22:38;21.30;;;10.68;;
26598;SDS011;14240;51.064;16.612;2023-12-29T00:25:04;22.00;;;11.13;;
26598;SDS011;14240;51.064;16.612;2023-12-29T00:27:30;20.52;;;10.00;;
26598;SDS011;14240;51.064;16.612;2023-12-29T00:29:56;21.42;;;9.63;;
26598;SDS011;14240;51.064;16.612;2023-12-29T00:32:22;36.92;;;16.85;;
26598;SDS011;14240;51.064;16.612;2023-12-29T00:34:47;18.13;;;9.27;;
26598;SDS011;14240;51.064;16.612;2023-12-29T00:37:13;23.33;;;11.18;;
26598;SDS011;14240;51.064;16.612;2023-12-29T00:39:39;18.30;;;8.90;;
26598;SDS011;14240;51.064;16.612;2023-12-29T00:42:05;48.60;;;14.68;;
26598;SDS011;14240;51.064;16.612;2023-12-29T00:44:31;75.07;;;19.25;;
26598;SDS011;14240;51.064;16.612;2023-12-29T00:46:58;70.63;;;17.77;;
26598;SDS011;14240;51.064;16.612;2023-12-29T00:49:25;71.68;;;21.27;;
26598;SDS011;14240;51.064;16.612;2023-12-29T00:51:50;71.28;;;19.63;;
26598;SDS011;14240;51.064;16.612;2023-12-29T00:54:17;73.47;;;18.15;;
26598;SDS011;14240;51.064;16.612;2023-12-29T00:56:47;42.38;;;12.50;;
26598;SDS011;14240;51.064;16.612;2023-12-29T00:59:14;49.05;;;13.85;;
26598;SDS011;14240;51.064;16.612;2023-12-29T01:01:40;33.95;;;11.63;;
26598;SDS011;14240;51.064;16.612;2023-12-29T01:04:06;28.92;;;12.35;;
26598;SDS011;14240;51.064;16.612;2023-12-29T01:06:31;38.20;;;15.27;;
26598;SDS011;14240;51.064;16.612;2023-12-29T01:08:57;40.58;;;16.77;;
26598;SDS011;14240;51.064;16.612;2023-12-29T01:11:23;72.18;;;28.23;;
26598;SDS011;14240;51.064;16.612;2023-12-29T01:13:49;77.32;;;29.05;;
26598;SDS011;14240;51.064;16.612;2023-12-29T01:16:14;49.33;;;18.80;;
26598;SDS011;14240;51.064;16.612;2023-12-29T01:18:40;37.92;;;14.20;;
26598;SDS011;14240;51.064;16.612;2023-12-29T01:21:06;25.58;;;10.52;;
26598;SDS011;14240;51.064;16.612;2023-12-29T01:23:31;27.17;;;9.80;;
26598;SDS011;14240;51.064;16.612;2023-12-29T01:25:57;35.03;;;12.93;;
26598;SDS011;14240;51.064;16.612;2023-12-29T01:28:23;23.50;;;10.15;;
26598;SDS011;14240;51.064;16.612;2023-12-29T01:30:50;19.30;;;8.20;;
26598;SDS011;14240;51.064;16.612;2023-12-29T01:33:16;15.05;;;8.98;;
26598;SDS011;14240;51.064;16.612;2023-12-29T01:35:42;69.70;;;24.83;;
26598;SDS011;14240;51.064;16.612;2023-12-29T01:38:08;115.82;;;35.38;;
26598;SDS011;14240;51.064;16.612;2023-12-29T01:40:41;257.83;;;63.42;;
26598;SDS011;14240;51.064;16.612;2023-12-29T01:43:11;116.18;;;27.75;;
26598;SDS011;14240;51.064;16.612;2023-12-29T01:45:37;60.55;;;15.60;;
26598;SDS011;14240;51.064;16.612;2023-12-29T01:48:02;38.17;;;13.82;;
26598;SDS011;14240;51.064;16.612;2023-12-29T01:50:29;54.00;;;18.40;;
26598;SDS011;14240;51.064;16.612;2023-12-29T01:52:55;53.53;;;16.83;;
26598;SDS011;14240;51.064;16.612;2023-12-29T01:55:22;117.13;;;40.13;;
26598;SDS011;14240;51.064;16.612;2023-12-29T01:57:50;454.30;;;167.05;;
26598;SDS011;14240;51.064;16.612;2023-12-29T02:00:17;486.50;;;193.48;;
26598;SDS011;14240;51.064;16.612;2023-12-29T02:02:43;427.48;;;176.48;;
26598;SDS011;14240;51.064;16.612;2023-12-29T02:05:13;227.02;;;88.00;;
26598;SDS011;14240;51.064;16.612;2023-12-29T02:07:40;96.88;;;31.20;;
26598;SDS011;14240;51.064;16.612;2023-12-29T02:10:07;78.47;;;25.30;;
26598;SDS011;14240;51.064;16.612;2023-12-29T02:12:34;37.42;;;12.25;;
26598;SDS011;14240;51.064;16.612;2023-12-29T02:15:04;24.80;;;9.70;;
26598;SDS011;14240;51.064;16.612;2023-12-29T02:17:52;24.52;;;9.18;;
26598;SDS011;14240;51.064;16.612;2023-12-29T02:20:21;24.60;;;9.60;;
26598;SDS011;14240;51.064;16.612;2023-12-29T02:22:48;21.23;;;8.23;;
26598;SDS011;14240;51.064;16.612;2023-12-29T02:25:13;30.00;;;9.35;;
26598;SDS011;14240;51.064;16.612;2023-12-29T02:27:55;20.92;;;9.95;;
26598;SDS011;14240;51.064;16.612;2023-12-29T02:32:57;14.75;;;7.47;;
26598;SDS011;14240;51.064;16.612;2023-12-29T02:35:26;20.05;;;8.52;;
26598;SDS011;14240;51.064;16.612;2023-12-29T02:37:54;13.63;;;6.43;;
26598;SDS011;14240;51.064;16.612;2023-12-29T02:40:20;9.82;;;6.15;;
26598;SDS011;14240;51.064;16.612;2023-12-29T02:42:48;12.35;;;5.95;;
26598;SDS011;14240;51.064;16.612;2023-12-29T02:45:15;19.35;;;8.10;;
26598;SDS011;14240;51.064;16.612;2023-12-29T02:47:41;36.13;;;13.40;;
26598;SDS011;14240;51.064;16.612;2023-12-29T02:50:08;58.22;;;15.10;;
26598;SDS011;14240;51.064;16.612;2023-12-29T02:52:34;17.42;;;7.18;;
26598;SDS011;14240;51.064;16.612;2023-12-29T02:55:00;21.27;;;7.05;;
26598;SDS011;14240;51.064;16.612;2023-12-29T02:57:26;31.95;;;10.82;;
26598;SDS011;14240;51.064;16.612;2023-12-29T02:59:51;22.45;;;7.70;;
26598;SDS011;14240;51.064;16.612;2023-12-29T03:02:18;10.30;;;6.50;;
26598;SDS011;14240;51.064;16.612;2023-12-29T03:04:44;18.93;;;7.43;;
26598;SDS011;14240;51.064;16.612;2023-12-29T03:07:10;17.15;;;7.30;;
26598;SDS011;14240;51.064;16.612;2023-12-29T03:09:36;18.75;;;7.03;;
26598;SDS011;14240;51.064;16.612;2023-12-29T03:12:02;22.20;;;6.93;;
26598;SDS011;14240;51.064;16.612;2023-12-29T03:14:28;21.90;;;7.90;;
26598;SDS011;14240;51.064;16.612;2023-12-29T03:16:54;16.80;;;6.10;;
26598;SDS011;14240;51.064;16.612;2023-12-29T03:19:20;14.98;;;6.35;;
26598;SDS011;14240;51.064;16.612;2023-12-29T03:21:46;14.63;;;6.70;;
26598;SDS011;14240;51.064;16.612;2023-12-29T03:24:11;15.45;;;7.22;;
26598;SDS011;14240;51.064;16.612;2023-12-29T03:26:37;12.52;;;6.57;;
26598;SDS011;14240;51.064;16.612;2023-12-29T03:29:03;19.00;;;7.10;;
26598;SDS011;14240;51.064;16.612;2023-12-29T03:31:28;26.08;;;9.15;;
26598;SDS011;14240;51.064;16.612;2023-12-29T03:33:54;16.65;;;7.57;;
26598;SDS011;14240;51.064;16.612;2023-12-29T03:36:20;25.58;;;9.30;;
26598;SDS011;14240;51.064;16.612;2023-12-29T03:38:46;18.23;;;8.30;;
26598;SDS011;14240;51.064;16.612;2023-12-29T03:41:12;21.73;;;8.35;;
26598;SDS011;14240;51.064;16.612;2023-12-29T03:43:37;19.95;;;9.40;;
26598;SDS011;14240;51.064;16.612;2023-12-29T03:46:03;21.55;;;9.25;;
26598;SDS011;14240;51.064;16.612;2023-12-29T03:48:43;17.50;;;7.70;;
26598;SDS011;14240;51.064;16.612;2023-12-29T03:51:09;21.92;;;7.28;;
26598;SDS011;14240;51.064;16.612;2023-12-29T03:53:35;21.77;;;8.88;;
26598;SDS011;14240;51.064;16.612;2023-12-29T03:56:14;42.35;;;17.90;;
26598;SDS011;14240;51.064;16.612;2023-12-29T03:58:44;143.40;;;49.20;;
26598;SDS011;14240;51.064;16.612;2023-12-29T04:01:13;189.43;;;53.67;;
26598;SDS011;14240;51.064;16.612;2023-12-29T04:03:40;98.10;;;26.92;;
26598;SDS011;14240;51.064;16.612;2023-12-29T04:06:06;53.42;;;15.15;;
26598;SDS011;14240;51.064;16.612;2023-12-29T04:08:33;30.23;;;9.55;;
26598;SDS011;14240;51.064;16.612;2023-12-29T04:10:59;20.75;;;8.57;;
26598;SDS011;14240;51.064;16.612;2023-12-29T04:13:28;18.85;;;6.82;;
26598;SDS011;14240;51.064;16.612;2023-12-29T04:15:54;14.93;;;6.72;;
26598;SDS011;14240;51.064;16.612;2023-12-29T04:18:20;16.33;;;8.10;;
26598;SDS011;14240;51.064;16.612;2023-12-29T04:20:47;12.88;;;6.82;;
26598;SDS011;14240;51.064;16.612;2023-12-29T04:23:13;11.90;;;7.22;;
26598;SDS011;14240;51.064;16.612;2023-12-29T04:25:39;26.77;;;10.02;;
26598;SDS011;14240;51.064;16.612;2023-12-29T04:28:06;16.48;;;7.72;;
26598;SDS011;14240;51.064;16.612;2023-12-29T04:30:32;19.55;;;7.55;;
26598;SDS011;14240;51.064;16.612;2023-12-29T04:32:57;24.85;;;9.50;;
26598;SDS011;14240;51.064;16.612;2023-12-29T04:35:23;18.17;;;8.10;;
26598;SDS011;14240;51.064;16.612;2023-12-29T04:37:49;18.83;;;7.60;;
26598;SDS011;14240;51.064;16.612;2023-12-29T04:40:16;16.65;;;7.68;;
26598;SDS011;14240;51.064;16.612;2023-12-29T04:42:42;15.52;;;7.47;;
26598;SDS011;14240;51.064;16.612;2023-12-29T04:45:08;14.85;;;7.72;;
26598;SDS011;14240;51.064;16.612;2023-12-29T04:47:35;20.35;;;11.15;;
26598;SDS011;14240;51.064;16.612;2023-12-29T04:50:01;20.63;;;9.80;;
26598;SDS011;14240;51.064;16.612;2023-12-29T04:52:27;18.90;;;7.88;;
26598;SDS011;14240;51.064;16.612;2023-12-29T04:54:53;18.42;;;8.77;;
26598;SDS011;14240;51.064;16.612;2023-12-29T04:57:19;15.02;;;6.50;;
26598;SDS011;14240;51.064;16.612;2023-12-29T04:59:45;9.27;;;5.97;;
26598;SDS011;14240;51.064;16.612;2023-12-29T05:02:10;11.05;;;5.57;;
26598;SDS011;14240;51.064;16.612;2023-12-29T05:04:36;12.55;;;6.43;;
26598;SDS011;14240;51.064;16.612;2023-12-29T05:07:03;10.73;;;5.53;;
26598;SDS011;14240;51.064;16.612;2023-12-29T05:09:33;12.02;;;5.65;;
26598;SDS011;14240;51.064;16.612;2023-12-29T05:11:58;14.30;;;5.22;;
26598;SDS011;14240;51.064;16.612;2023-12-29T05:14:24;11.65;;;7.07;;
26598;SDS011;14240;51.064;16.612;2023-12-29T05:16:50;14.35;;;8.75;;
26598;SDS011;14240;51.064;16.612;2023-12-29T05:19:15;43.40;;;17.45;;
26598;SDS011;14240;51.064;16.612;2023-12-29T05:21:41;71.80;;;24.83;;
26598;SDS011;14240;51.064;16.612;2023-12-29T05:24:07;26.80;;;10.18;;
26598;SDS011;14240;51.064;16.612;2023-12-29T05:26:33;24.10;;;9.10;;
26598;SDS011;14240;51.064;16.612;2023-12-29T05:28:59;30.45;;;11.65;;
26598;SDS011;14240;51.064;16.612;2023-12-29T05:31:25;12.18;;;6.85;;
26598;SDS011;14240;51.064;16.612;2023-12-29T05:33:50;16.30;;;6.70;;
26598;SDS011;14240;51.064;16.612;2023-12-29T05:36:16;12.88;;;6.30;;
26598;SDS011;14240;51.064;16.612;2023-12-29T05:38:44;14.15;;;7.03;;
26598;SDS011;14240;51.064;16.612;2023-12-29T05:41:14;13.13;;;6.82;;
26598;SDS011;14240;51.064;16.612;2023-12-29T05:43:40;11.05;;;5.72;;
26598;SDS011;14240;51.064;16.612;2023-12-29T05:46:09;12.35;;;5.90;;
26598;SDS011;14240;51.064;16.612;2023-12-29T05:48:36;12.55;;;5.80;;
26598;SDS011;14240;51.064;16.612;2023-12-29T05:51:12;11.63;;;5.65;;
26598;SDS011;14240;51.064;16.612;2023-12-29T05:53:42;11.38;;;6.28;;
26598;SDS011;14240;51.064;16.612;2023-12-29T05:56:10;10.30;;;5.25;;
26598;SDS011;14240;51.064;16.612;2023-12-29T05:58:37;12.50;;;5.38;;
26598;SDS011;14240;51.064;16.612;2023-12-29T06:01:03;11.38;;;6.03;;
26598;SDS011;14240;51.064;16.612;2023-12-29T06:03:28;13.60;;;5.50;;
26598;SDS011;14240;51.064;16.612;2023-12-29T06:05:54;11.35;;;4.82;;
26598;SDS011;14240;51.064;16.612;2023-12-29T06:08:20;11.65;;;6.22;;
26598;SDS011;14240;51.064;16.612;2023-12-29T06:10:45;10.27;;;5.50;;
26598;SDS011;14240;51.064;16.612;2023-12-29T06:13:11;7.65;;;4.25;;
26598;SDS011;14240;51.064;16.612;2023-12-29T06:15:37;10.80;;;5.55;;
26598;SDS011;14240;51.064;16.612;2023-12-29T06:18:03;11.00;;;5.65;;
26598;SDS011;14240;51.064;16.612;2023-12-29T06:20:29;9.13;;;5.13;;
26598;SDS011;14240;51.064;16.612;2023-12-29T06:22:55;9.80;;;5.40;;
26598;SDS011;14240;51.064;16.612;2023-12-29T06:25:21;9.32;;;5.30;;
26598;SDS011;14240;51.064;16.612;2023-12-29T06:27:47;10.27;;;5.18;;
26598;SDS011;14240;51.064;16.612;2023-12-29T06:30:13;7.55;;;4.93;;
26598;SDS011;14240;51.064;16.612;2023-12-29T06:32:39;8.02;;;4.38;;
26598;SDS011;14240;51.064;16.612;2023-12-29T06:35:06;6.68;;;3.97;;
26598;SDS011;14240;51.064;16.612;2023-12-29T06:37:32;6.30;;;3.97;;
26598;SDS011;14240;51.064;16.612;2023-12-29T06:39:58;6.00;;;4.03;;
26598;SDS011;14240;51.064;16.612;2023-12-29T06:42:24;10.60;;;5.20;;
26598;SDS011;14240;51.064;16.612;2023-12-29T06:44:50;20.77;;;9.23;;
26598;SDS011;14240;51.064;16.612;2023-12-29T06:47:15;93.90;;;29.58;;
26598;SDS011;14240;51.064;16.612;2023-12-29T06:49:41;51.83;;;18.13;;
26598;SDS011;14240;51.064;16.612;2023-12-29T06:52:07;23.70;;;8.32;;
26598;SDS011;14240;51.064;16.612;2023-12-29T06:54:36;14.23;;;5.30;;
26598;SDS011;14240;51.064;16.612;2023-12-29T06:57:01;15.73;;;6.35;;
26598;SDS011;14240;51.064;16.612;2023-12-29T06:59:27;9.93;;;5.72;;
26598;SDS011;14240;51.064;16.612;2023-12-29T07:01:53;11.77;;;5.25;;
26598;SDS011;14240;51.064;16.612;2023-12-29T07:04:18;12.13;;;5.47;;
26598;SDS011;14240;51.064;16.612;2023-12-29T07:06:44;9.07;;;4.85;;
26598;SDS011;14240;51.064;16.612;2023-12-29T07:09:10;11.77;;;4.93;;
26598;SDS011;14240;51.064;16.612;2023-12-29T07:11:36;11.00;;;4.82;;
26598;SDS011;14240;51.064;16.612;2023-12-29T07:14:02;7.32;;;4.18;;
26598;SDS011;14240;51.064;16.612;2023-12-29T07:16:28;11.57;;;4.57;;
26598;SDS011;14240;51.064;16.612;2023-12-29T07:18:54;8.40;;;4.55;;
26598;SDS011;14240;51.064;16.612;2023-12-29T07:21:19;9.40;;;4.55;;
26598;SDS011;14240;51.064;16.612;2023-12-29T07:23:46;12.68;;;4.32;;
26598;SDS011;14240;51.064;16.612;2023-12-29T07:26:13;11.35;;;4.68;;
26598;SDS011;14240;51.064;16.612;2023-12-29T07:28:39;10.55;;;4.40;;
26598;SDS011;14240;51.064;16.612;2023-12-29T07:31:05;7.13;;;3.85;;
26598;SDS011;14240;51.064;16.612;2023-12-29T07:33:31;7.03;;;4.18;;
26598;SDS011;14240;51.064;16.612;2023-12-29T07:35:57;10.00;;;4.35;;
26598;SDS011;14240;51.064;16.612;2023-12-29T07:38:24;31.10;;;10.18;;
26598;SDS011;14240;51.064;16.612;2023-12-29T07:40:49;7.70;;;4.10;;
26598;SDS011;14240;51.064;16.612;2023-12-29T07:43:15;7.00;;;4.10;;
26598;SDS011;14240;51.064;16.612;2023-12-29T07:45:41;8.90;;;4.70;;
26598;SDS011;14240;51.064;16.612;2023-12-29T07:48:10;12.13;;;5.28;;
26598;SDS011;14240;51.064;16.612;2023-12-29T07:50:36;14.48;;;5.20;;
26598;SDS011;14240;51.064;16.612;2023-12-29T07:53:02;8.52;;;4.00;;
26598;SDS011;14240;51.064;16.612;2023-12-29T07:55:28;9.57;;;4.22;;
26598;SDS011;14240;51.064;16.612;2023-12-29T08:00:21;13.85;;;4.75;;
26598;SDS011;14240;51.064;16.612;2023-12-29T08:02:48;13.57;;;5.53;;
26598;SDS011;14240;51.064;16.612;2023-12-29T08:05:15;28.73;;;10.23;;
26598;SDS011;14240;51.064;16.612;2023-12-29T08:07:41;17.77;;;7.93;;
26598;SDS011;14240;51.064;16.612;2023-12-29T08:10:08;15.02;;;5.30;;
26598;SDS011;14240;51.064;16.612;2023-12-29T08:12:34;8.40;;;4.97;;
26598;SDS011;14240;51.064;16.612;2023-12-29T08:15:00;10.88;;;4.55;;
26598;SDS011;14240;51.064;16.612;2023-12-29T08:17:27;7.38;;;3.75;;
26598;SDS011;14240;51.064;16.612;2023-12-29T08:19:53;7.38;;;3.55;;
26598;SDS011;14240;51.064;16.612;2023-12-29T08:22:20;6.80;;;4.18;;
26598;SDS011;14240;51.064;16.612;2023-12-29T08:24:46;8.65;;;4.10;;
26598;SDS011;14240;51.064;16.612;2023-12-29T08:27:12;9.73;;;4.22;;
26598;SDS011;14240;51.064;16.612;2023-12-29T08:29:38;15.80;;;5.47;;
26598;SDS011;14240;51.064;16.612;2023-12-29T08:32:04;13.45;;;5.45;;
26598;SDS011;14240;51.064;16.612;2023-12-29T08:34:30;13.07;;;5.20;;
26598;SDS011;14240;51.064;16.612;2023-12-29T08:36:55;14.65;;;4.70;;
26598;SDS011;14240;51.064;16.612;2023-12-29T08:39:21;7.25;;;3.95;;
26598;SDS011;14240;51.064;16.612;2023-12-29T08:41:47;7.88;;;4.18;;
26598;SDS011;14240;51.064;16.612;2023-12-29T08:44:16;9.77;;;4.00;;
26598;SDS011;14240;51.064;16.612;2023-12-29T08:46:41;7.15;;;3.50;;
26598;SDS011;14240;51.064;16.612;2023-12-29T08:49:07;5.38;;;3.42;;
26598;SDS011;14240;51.064;16.612;2023-12-29T08:51:33;5.72;;;3.20;;
26598;SDS011;14240;51.064;16.612;2023-12-29T08:53:59;7.88;;;3.25;;
26598;SDS011;14240;51.064;16.612;2023-12-29T08:56:25;6.30;;;3.42;;
26598;SDS011;14240;51.064;16.612;2023-12-29T08:58:50;7.28;;;3.45;;
26598;SDS011;14240;51.064;16.612;2023-12-29T09:01:17;5.53;;;3.05;;
26598;SDS011;14240;51.064;16.612;2023-12-29T09:03:45;10.88;;;4.72;;
26598;SDS011;14240;51.064;16.612;2023-12-29T09:06:11;31.33;;;12.65;;
26598;SDS011;14240;51.064;16.612;2023-12-29T09:08:36;40.70;;;17.25;;
26598;SDS011;14240;51.064;16.612;2023-12-29T09:11:03;35.35;;;14.90;;
26598;SDS011;14240;51.064;16.612;2023-12-29T09:13:29;67.85;;;23.10;;
26598;SDS011;14240;51.064;16.612;2023-12-29T09:15:55;78.72;;;25.83;;
26598;SDS011;14240;51.064;16.612;2023-12-29T09:18:21;38.85;;;15.05;;
26598;SDS011;14240;51.064;16.612;2023-12-29T09:20:47;18.02;;;7.22;;
26598;SDS011;14240;51.064;16.612;2023-12-29T09:23:12;9.75;;;4.63;;
26598;SDS011;14240;51.064;16.612;2023-12-29T09:25:39;12.32;;;4.22;;
26598;SDS011;14240;51.064;16.612;2023-12-29T09:28:06;8.73;;;4.13;;
26598;SDS011;14240;51.064;16.612;2023-12-29T09:30:34;16.02;;;5.28;;
26598;SDS011;14240;51.064;16.612;2023-12-29T09:33:00;13.50;;;5.25;;
26598;SDS011;14240;51.064;16.612;2023-12-29T09:35:25;5.13;;;4.63;;
26598;SDS011;14240;51.064;16.612;2023-12-29T09:37:51;7.15;;;6.40;;
26598;SDS011;14240;51.064;16.612;2023-12-29T09:40:17;6.43;;;4.40;;
26598;SDS011;14240;51.064;16.612;2023-12-29T09:42:43;4.80;;;3.00;;
26598;SDS011;14240;51.064;16.612;2023-12-29T09:45:12;3.80;;;2.40;;
26598;SDS011;14240;51.064;16.612;2023-12-29T09:47:39;2.55;;;2.30;;
26598;SDS011;14240;51.064;16.612;2023-12-29T09:50:12;3.67;;;2.28;;
26598;SDS011;14240;51.064;16.612;2023-12-29T09:52:39;5.68;;;2.35;;
26598;SDS011;14240;51.064;16.612;2023-12-29T09:55:07;4.85;;;2.47;;
26598;SDS011;14240;51.064;16.612;2023-12-29T09:57:35;4.28;;;2.75;;
26598;SDS011;14240;51.064;16.612;2023-12-29T10:00:03;5.75;;;3.33;;
26598;SDS011;14240;51.064;16.612;2023-12-29T10:02:29;5.95;;;2.85;;
26598;SDS011;14240;51.064;16.612;2023-12-29T10:04:55;4.60;;;2.45;;
26598;SDS011;14240;51.064;16.612;2023-12-29T10:07:25;3.92;;;2.35;;
26598;SDS011;14240;51.064;16.612;2023-12-29T10:09:57;3.97;;;2.30;;
26598;SDS011;14240;51.064;16.612;2023-12-29T10:12:30;3.88;;;2.30;;
26598;SDS011;14240;51.064;16.612;2023-12-29T10:17:30;5.07;;;2.15;;
26598;SDS011;14240;51.064;16.612;2023-12-29T10:23:08;3.53;;;2.42;;
26598;SDS011;14240;51.064;16.612;2023-12-29T10:25:54;4.03;;;2.03;;
26598;SDS011;14240;51.064;16.612;2023-12-29T10:28:20;4.20;;;2.10;;
26598;SDS011;14240;51.064;16.612;2023-12-29T10:30:47;4.00;;;2.33;;
26598;SDS011;14240;51.064;16.612;2023-12-29T10:33:18;4.45;;;2.50;;
26598;SDS011;14240;51.064;16.612;2023-12-29T10:35:59;5.78;;;2.95;;
26598;SDS011;14240;51.064;16.612;2023-12-29T10:38:29;3.92;;;2.67;;
26598;SDS011;14240;51.064;16.612;2023-12-29T10:41:09;5.93;;;2.70;;
26598;SDS011;14240;51.064;16.612;2023-12-29T10:43:40;4.22;;;2.58;;
26598;SDS011;14240;51.064;16.612;2023-12-29T10:46:07;3.20;;;1.90;;
26598;SDS011;14240;51.064;16.612;2023-12-29T10:48:34;3.88;;;2.20;;
26598;SDS011;14240;51.064;16.612;2023-12-29T10:51:01;3.05;;;2.10;;
26598;SDS011;14240;51.064;16.612;2023-12-29T10:53:29;4.32;;;2.05;;
26598;SDS011;14240;51.064;16.612;2023-12-29T10:55:56;3.35;;;2.25;;
26598;SDS011;14240;51.064;16.612;2023-12-29T10:58:28;4.80;;;2.50;;
26598;SDS011;14240;51.064;16.612;2023-12-29T11:00:58;3.38;;;2.13;;
26598;SDS011;14240;51.064;16.612;2023-12-29T11:03:26;7.55;;;2.80;;
26598;SDS011;14240;51.064;16.612;2023-12-29T11:05:59;5.82;;;4.03;;
26598;SDS011;14240;51.064;16.612;2023-12-29T11:08:27;3.95;;;2.17;;
26598;SDS011;14240;51.064;16.612;2023-12-29T11:10:53;2.47;;;1.90;;
26598;SDS011;14240;51.064;16.612;2023-12-29T11:13:20;5.65;;;2.30;;
26598;SDS011;14240;51.064;16.612;2023-12-29T11:15:46;2.35;;;1.85;;
26598;SDS011;14240;51.064;16.612;2023-12-29T11:18:13;3.67;;;2.47;;
26598;SDS011;14240;51.064;16.612;2023-12-29T11:20:41;3.30;;;1.60;;
26598;SDS011;14240;51.064;16.612;2023-12-29T11:23:08;2.25;;;1.65;;
26598;SDS011;14240;51.064;16.612;2023-12-29T11:25:35;5.18;;;1.65;;
26598;SDS011;14240;51.064;16.612;2023-12-29T11:28:00;2.80;;;1.83;;
26598;SDS011;14240;51.064;16.612;2023-12-29T11:30:27;3.65;;;2.00;;
26598;SDS011;14240;51.064;16.612;2023-12-29T11:32:56;3.47;;;2.35;;
26598;SDS011;14240;51.064;16.612;2023-12-29T11:35:37;1.60;;;1.50;;
26598;SDS011;14240;51.064;16.612;2023-12-29T11:38:52;2.70;;;1.63;;
26598;SDS011;14240;51.064;16.612;2023-12-29T11:41:21;2.58;;;1.85;;
26598;SDS011;14240;51.064;16.612;2023-12-29T11:44:06;2.08;;;1.33;;
26598;SDS011;14240;51.064;16.612;2023-12-29T11:46:39;3.88;;;1.60;;
26598;SDS011;14240;51.064;16.612;2023-12-29T11:49:08;3.00;;;1.55;;
26598;SDS011;14240;51.064;16.612;2023-12-29T11:51:35;2.88;;;1.70;;
26598;SDS011;14240;51.064;16.612;2023-12-29T11:54:06;4.50;;;1.70;;
26598;SDS011;14240;51.064;16.612;2023-12-29T11:59:18;3.50;;;2.28;;
26598;SDS011;14240;51.064;16.612;2023-12-29T12:01:51;2.77;;;1.50;;
26598;SDS011;14240;51.064;16.612;2023-12-29T12:04:41;3.65;;;2.30;;
26598;SDS011;14240;51.064;16.612;2023-12-29T12:07:16;3.40;;;1.80;;
26598;SDS011;14240;51.064;16.612;2023-12-29T12:13:03;5.45;;;1.90;;
26598;SDS011;14240;51.064;16.612;2023-12-29T12:17:55;10.68;;;5.05;;
26598;SDS011;14240;51.064;16.612;2023-12-29T12:20:22;95.30;;;33.60;;
26598;SDS011;14240;51.064;16.612;2023-12-29T12:22:49;10.32;;;3.63;;
26598;SDS011;14240;51.064;16.612;2023-12-29T12:25:27;78.72;;;31.05;;
26598;SDS011;14240;51.064;16.612;2023-12-29T12:27:57;320.95;;;106.55;;
26598;SDS011;14240;51.064;16.612;2023-12-29T12:30:23;280.20;;;96.25;;
26598;SDS011;14240;51.064;16.612;2023-12-29T12:33:02;313.33;;;125.68;;
26598;SDS011;14240;51.064;16.612;2023-12-29T12:35:29;270.10;;;112.57;;
26598;SDS011;14240;51.064;16.612;2023-12-29T12:40:39;56.13;;;21.98;;
26598;SDS011;14240;51.064;16.612;2023-12-29T12:43:06;78.18;;;29.60;;
26598;SDS011;14240;51.064;16.612;2023-12-29T12:45:42;70.57;;;26.25;;
26598;SDS011;14240;51.064;16.612;2023-12-29T12:48:23;72.05;;;25.65;;
26598;SDS011;14240;51.064;16.612;2023-12-29T12:50:54;78.65;;;25.15;;
26598;SDS011;14240;51.064;16.612;2023-12-29T12:53:22;26.05;;;12.07;;
26598;SDS011;14240;51.064;16.612;2023-12-29T12:55:48;30.13;;;15.27;;
26598;SDS011;14240;51.064;16.612;2023-12-29T12:58:16;31.92;;;12.77;;
26598;SDS011;14240;51.064;16.612;2023-12-29T13:00:48;75.43;;;27.33;;
26598;SDS011;14240;51.064;16.612;2023-12-29T13:03:15;13.80;;;6.00;;
26598;SDS011;14240;51.064;16.612;2023-12-29T13:05:41;7.03;;;3.45;;
26598;SDS011;14240;51.064;16.612;2023-12-29T13:08:08;92.15;;;35.58;;
26598;SDS011;14240;51.064;16.612;2023-12-29T13:10:34;280.75;;;102.53;;
26598;SDS011;14240;51.064;16.612;2023-12-29T13:13:06;531.67;;;235.88;;
26598;SDS011;14240;51.064;16.612;2023-12-29T13:15:32;173.60;;;76.60;;
26598;SDS011;14240;51.064;16.612;2023-12-29T13:17:57;387.15;;;149.38;;
26598;SDS011;14240;51.064;16.612;2023-12-29T13:20:23;190.15;;;79.85;;
26598;SDS011;14240;51.064;16.612;2023-12-29T13:22:49;166.85;;;77.28;;
26598;SDS011;14240;51.064;16.612;2023-12-29T13:25:20;123.32;;;47.50;;
26598;SDS011;14240;51.064;16.612;2023-12-29T13:27:49;5.63;;;3.03;;
26598;SDS011;14240;51.064;16.612;2023-12-29T13:30:16;11.60;;;4.10;;
26598;SDS011;14240;51.064;16.612;2023-12-29T13:32:42;4.83;;;2.93;;
26598;SDS011;14240;51.064;16.612;2023-12-29T13:38:19;9.75;;;3.63;;
26598;SDS011;14240;51.064;16.612;2023-12-29T13:40:56;3.88;;;2.65;;
26598;SDS011;14240;51.064;16.612;2023-12-29T13:43:28;4.80;;;2.88;;
26598;SDS011;14240;51.064;16.612;2023-12-29T13:45:57;3.75;;;2.60;;
26598;SDS011;14240;51.064;16.612;2023-12-29T13:48:24;7.72;;;3.28;;
26598;SDS011;14240;51.064;16.612;2023-12-29T13:53:18;7.43;;;3.30;;
26598;SDS011;14240;51.064;16.612;2023-12-29T13:55:44;10.93;;;4.85;;
26598;SDS011;14240;51.064;16.612;2023-12-29T13:58:10;12.55;;;5.05;;
26598;SDS011;14240;51.064;16.612;2023-12-29T14:00:37;13.70;;;6.25;;
26598;SDS011;14240;51.064;16.612;2023-12-29T14:03:26;22.88;;;9.05;;
26598;SDS011;14240;51.064;16.612;2023-12-29T14:06:03;27.50;;;12.68;;
26598;SDS011;14240;51.064;16.612;2023-12-29T14:08:32;36.42;;;15.50;;
26598;SDS011;14240;51.064;16.612;2023-12-29T14:11:10;19.10;;;8.07;;
26598;SDS011;14240;51.064;16.612;2023-12-29T14:13:42;13.88;;;6.05;;
26598;SDS011;14240;51.064;16.612;2023-12-29T14:16:09;9.07;;;5.10;;
26598;SDS011;14240;51.064;16.612;2023-12-29T14:24:09;6.13;;;3.90;;
26598;SDS011;14240;51.064;16.612;2023-12-29T14:29:12;11.32;;;5.07;;
26598;SDS011;14240;51.064;16.612;2023-12-29T14:31:39;12.77;;;6.38;;
26598;SDS011;14240;51.064;16.612;2023-12-29T14:34:08;16.30;;;8.57;;
26598;SDS011;14240;51.064;16.612;2023-12-29T14:36:36;16.47;;;7.57;;
26598;SDS011;14240;51.064;16.612;2023-12-29T14:39:03;9.48;;;6.13;;
26598;SDS011;14240;51.064;16.612;2023-12-29T14:41:29;9.27;;;5.07;;
26598;SDS011;14240;51.064;16.612;2023-12-29T14:43:56;24.98;;;12.23;;
26598;SDS011;14240;51.064;16.612;2023-12-29T14:46:22;28.95;;;12.65;;
26598;SDS011;14240;51.064;16.612;2023-12-29T14:48:48;12.23;;;5.85;;
26598;SDS011;14240;51.064;16.612;2023-12-29T14:51:14;15.35;;;6.20;;
26598;SDS011;14240;51.064;16.612;2023-12-29T14:53:44;16.70;;;6.45;;
26598;SDS011;14240;51.064;16.612;2023-12-29T14:56:12;12.18;;;5.55;;
26598;SDS011;14240;51.064;16.612;2023-12-29T14:58:38;12.50;;;5.43;;